createdAt,value
2022-09-03T00:02:22.397Z,95159.41
2022-09-03T00:05:08.004Z,95157.78
2022-09-03T00:07:40.862Z,95163.25
2022-09-03T00:10:12.485Z,95163.63
2022-09-03T00:12:44.628Z,95153.03
2022-09-03T00:15:18.861Z,95156.13
2022-09-03T00:17:55.389Z,95161.16
2022-09-03T00:20:33.225Z,95166.97
2022-09-03T00:23:08.692Z,95169.28
2022-09-03T00:25:40.713Z,95163.34
2022-09-03T00:28:15.693Z,95164.50
2022-09-03T00:30:45.343Z,95164.03
2022-09-03T00:33:22.437Z,95163.63
2022-09-03T00:36:03.863Z,95164.31
2022-09-03T00:38:30.857Z,95169.00
2022-09-03T00:41:23.496Z,95166.63
2022-09-03T00:44:01.094Z,95174.38
2022-09-03T00:46:53.013Z,95168.03
2022-09-03T00:49:32.704Z,95171.19
2022-09-03T00:52:23.454Z,95167.31
2022-09-03T00:55:08.903Z,95170.47
2022-09-03T00:57:54.006Z,95166.63
2022-09-03T01:00:21.463Z,95169.78
2022-09-03T01:03:09.277Z,95163.97
2022-09-03T01:05:41.642Z,95168.03
2022-09-03T01:08:20.901Z,95174.91
2022-09-03T01:10:56.487Z,95176.50
2022-09-03T01:13:36.884Z,95179.59
2022-09-03T01:16:31.368Z,95181.88
2022-09-03T01:19:35.628Z,95176.66
2022-09-03T01:22:18.741Z,95168.03
2022-09-03T01:25:15.708Z,95165.63
2022-09-03T01:28:16.365Z,95167.50
2022-09-03T01:30:45.877Z,95170.59
2022-09-03T01:33:37.161Z,95182.53
2022-09-03T01:36:32.623Z,95181.97
2022-09-03T01:39:06.228Z,95172.88
2022-09-03T01:41:55.425Z,95172.81
2022-09-03T01:44:49.910Z,95171.13
2022-09-03T01:47:36.987Z,95167.16
2022-09-03T01:50:14.924Z,95167.50
2022-09-03T01:52:59.338Z,95176.41
2022-09-03T01:55:33.561Z,95180.25
2022-09-03T01:58:38.127Z,95178.66
2022-09-03T02:01:18.261Z,95169.34
2022-09-03T02:03:45.793Z,95159.19
2022-09-03T02:06:12.599Z,95158.41
2022-09-03T02:08:39.174Z,95152.94
2022-09-03T02:11:09.801Z,95152.94
2022-09-03T02:13:40.892Z,95151.81
2022-09-03T02:16:20.448Z,95149.09
2022-09-03T02:18:51.385Z,95153.03
2022-09-03T02:21:21.165Z,95152.69
2022-09-03T02:23:48.484Z,95152.81
2022-09-03T02:26:18.402Z,95144.59
2022-09-03T02:28:45.505Z,95144.69
2022-09-03T02:31:12.315Z,95144.69
2022-09-03T02:33:41.328Z,95135.38
2022-09-03T02:36:11.533Z,95136.50
2022-09-03T02:38:38.175Z,95148.56
2022-09-03T02:41:04.890Z,95151.28
2022-09-03T02:43:58.855Z,95147.34
2022-09-03T02:46:43.461Z,95157.00
2022-09-03T02:49:10.025Z,95161.34
2022-09-03T02:51:41.993Z,95155.41
2022-09-03T02:54:10.453Z,95156.22
2022-09-03T02:56:38.189Z,95160.09
2022-09-03T02:59:06.682Z,95151.13
2022-09-03T03:01:33.692Z,95151.13
2022-09-03T03:04:00.367Z,95151.47
2022-09-03T03:06:26.996Z,95149.88
2022-09-03T03:08:53.521Z,95150.56
2022-09-03T03:11:20.165Z,95157.88
2022-09-03T03:13:47.057Z,95160.16
2022-09-03T03:16:15.518Z,95158.13
2022-09-03T03:18:42.235Z,95158.03
2022-09-03T03:21:11.524Z,95161.00
2022-09-03T03:23:38.762Z,95163.66
2022-09-03T03:26:10.560Z,95158.41
2022-09-03T03:28:37.549Z,95166.16
2022-09-03T03:31:09.311Z,95159.00
2022-09-03T03:33:36.148Z,95163.25
2022-09-03T03:36:10.994Z,95162.78
2022-09-03T03:38:38.554Z,95157.66
2022-09-03T03:41:13.770Z,95156.78
2022-09-03T03:43:40.428Z,95168.84
2022-09-03T03:46:07.274Z,95164.06
2022-09-03T03:48:34.320Z,95169.53
2022-09-03T03:51:06.729Z,95174.09
2022-09-03T03:53:38.051Z,95164.66
2022-09-03T03:56:07.619Z,95165.00
2022-09-03T03:58:34.512Z,95165.34
2022-09-03T04:01:17.736Z,95172.28
2022-09-03T04:03:45.093Z,95174.56
2022-09-03T04:06:13.861Z,95172.88
2022-09-03T04:08:42.822Z,95174.38
2022-09-03T04:11:14.023Z,95171.50
2022-09-03T04:13:42.369Z,95174.13
2022-09-03T04:16:38.586Z,95170.06
2022-09-03T04:19:05.259Z,95167.66
2022-09-03T04:21:31.843Z,95166.41
2022-09-03T04:23:58.885Z,95167.53
2022-09-03T04:26:29.137Z,95165.94
2022-09-03T04:28:55.684Z,95167.09
2022-09-03T04:31:22.368Z,95161.97
2022-09-03T04:33:49.505Z,95157.66
2022-09-03T04:36:21.623Z,95151.75
2022-09-03T04:38:51.767Z,95150.16
2022-09-03T04:41:21.178Z,95154.81
2022-09-03T04:43:48.612Z,95161.41
2022-09-03T04:46:19.365Z,95163.69
2022-09-03T04:48:49.377Z,95177.31
2022-09-03T04:51:19.296Z,95171.88
2022-09-03T04:53:48.248Z,95168.00
2022-09-03T04:56:20.659Z,95163.34
2022-09-03T04:58:49.205Z,95162.66
2022-09-03T05:01:22.449Z,95165.84
2022-09-03T05:03:49.555Z,95175.72
2022-09-03T05:06:16.114Z,95175.06
2022-09-03T05:08:43.592Z,95182.66
2022-09-03T05:11:10.280Z,95185.84
2022-09-03T05:13:36.979Z,95186.75
2022-09-03T05:16:09.979Z,95181.41
2022-09-03T05:18:37.094Z,95183.88
2022-09-03T05:21:06.708Z,95189.13
2022-09-03T05:23:37.835Z,95192.75
2022-09-03T05:26:06.953Z,95198.75
2022-09-03T05:28:39.731Z,95198.53
2022-09-03T05:31:08.732Z,95191.69
2022-09-03T05:33:40.669Z,95185.97
2022-09-03T05:36:09.974Z,95192.00
2022-09-03T05:38:37.131Z,95189.09
2022-09-03T05:41:08.831Z,95179.53
2022-09-03T05:43:36.226Z,95181.66
2022-09-03T05:46:08.746Z,95189.59
2022-09-03T05:48:37.100Z,95196.88
2022-09-03T05:51:07.879Z,95210.34
2022-09-03T05:53:36.555Z,95209.41
2022-09-03T05:56:10.500Z,95219.88
2022-09-03T05:58:40.066Z,95234.16
2022-09-03T06:01:18.384Z,95247.66
2022-09-03T06:03:47.510Z,95256.16
2022-09-03T06:06:15.247Z,95277.41
2022-09-03T06:08:42.705Z,95268.84
2022-09-03T06:11:09.292Z,95268.59
2022-09-03T06:13:36.836Z,95266.75
2022-09-03T06:16:05.741Z,95259.41
2022-09-03T06:18:32.755Z,95247.88
2022-09-03T06:21:01.686Z,95247.63
2022-09-03T06:23:30.401Z,95248.94
2022-09-03T06:26:07.991Z,95248.75
2022-09-03T06:28:36.283Z,95248.94
2022-09-03T06:31:05.023Z,95255.44
2022-09-03T06:33:33.651Z,95254.13
2022-09-03T06:36:03.787Z,95250.88
2022-09-03T06:38:34.468Z,95253.03
2022-09-03T06:41:02.600Z,95256.38
2022-09-03T06:43:31.056Z,95253.41
2022-09-03T06:45:59.890Z,95259.47
2022-09-03T06:48:27.895Z,95261.22
2022-09-03T06:50:59.857Z,95262.16
2022-09-03T06:53:34.496Z,95262.75
2022-09-03T06:56:03.396Z,95264.47
2022-09-03T06:58:32.221Z,95270.91
2022-09-03T07:01:04.470Z,95266.34
2022-09-03T07:03:31.045Z,95261.91
2022-09-03T07:06:04.233Z,95266.06
2022-09-03T07:08:31.918Z,95255.69
2022-09-03T07:11:02.787Z,95268.03
2022-09-03T07:13:29.553Z,95269.44
2022-09-03T07:16:20.672Z,95272.78
2022-09-03T07:18:47.792Z,95265.56
2022-09-03T07:21:17.011Z,95269.75
2022-09-03T07:23:44.430Z,95270.75
2022-09-03T07:26:13.835Z,95271.78
2022-09-03T07:28:41.985Z,95284.13
2022-09-03T07:31:26.817Z,95275.22
2022-09-03T07:33:54.877Z,95277.75
2022-09-03T07:36:21.916Z,95281.69
2022-09-03T07:38:48.662Z,95280.31
2022-09-03T07:41:21.796Z,95267.88
2022-09-03T07:43:55.300Z,95275.81
2022-09-03T07:46:23.918Z,95272.72
2022-09-03T07:48:52.046Z,95277.88
2022-09-03T07:51:19.915Z,95294.31
2022-09-03T07:53:47.565Z,95284.88
2022-09-03T07:56:15.055Z,95286.59
2022-09-03T07:58:42.361Z,95281.13
2022-09-03T08:01:14.172Z,95280.38
2022-09-03T08:03:46.663Z,95284.78
2022-09-03T08:06:14.553Z,95290.34
2022-09-03T08:08:41.614Z,95285.66
2022-09-03T08:11:11.252Z,95295.97
2022-09-03T08:13:39.637Z,95289.69
2022-09-03T08:16:07.667Z,95287.34
2022-09-03T08:18:35.038Z,95290.81
2022-09-03T08:21:01.551Z,95295.59
2022-09-03T08:23:28.056Z,95281.91
2022-09-03T08:26:01.167Z,95286.63
2022-09-03T08:28:28.349Z,95284.34
2022-09-03T08:30:55.011Z,95288.34
2022-09-03T08:33:22.319Z,95279.38
2022-09-03T08:35:54.500Z,95284.59
2022-09-03T08:38:21.119Z,95283.88
2022-09-03T08:40:47.782Z,95287.94
2022-09-03T08:43:17.272Z,95289.59
2022-09-03T08:45:43.915Z,95281.78
2022-09-03T08:48:16.218Z,95282.66
2022-09-03T08:50:48.483Z,95287.44
2022-09-03T08:53:30.030Z,95290.63
2022-09-03T08:56:03.366Z,95286.03
2022-09-03T08:58:33.301Z,95275.41
2022-09-03T09:01:21.548Z,95284.91
2022-09-03T09:04:23.008Z,95274.69
2022-09-03T09:07:15.024Z,95283.81
2022-09-03T09:10:00.915Z,95273.19
2022-09-03T09:12:59.912Z,95287.03
2022-09-03T09:15:39.990Z,95287.84
2022-09-03T09:18:18.727Z,95283.91
2022-09-03T09:20:50.962Z,95283.53
2022-09-03T09:23:27.152Z,95276.88
2022-09-03T09:25:57.271Z,95277.66
2022-09-03T09:28:29.159Z,95269.38
2022-09-03T09:30:57.267Z,95272.16
2022-09-03T09:33:24.517Z,95267.41
2022-09-03T09:35:51.050Z,95269.78
2022-09-03T09:38:31.552Z,95257.56
2022-09-03T09:41:09.148Z,95267.03
2022-09-03T09:43:35.857Z,95266.25
2022-09-03T09:46:09.822Z,95261.53
2022-09-03T09:48:50.520Z,95267.84
2022-09-03T09:51:23.602Z,95263.88
2022-09-03T09:54:18.169Z,95272.94
2022-09-03T09:56:44.924Z,95272.97
2022-09-03T09:59:13.572Z,95266.25
2022-09-03T10:01:42.411Z,95269.03
2022-09-03T10:04:12.875Z,95267.44
2022-09-03T10:06:40.447Z,95264.66
2022-09-03T10:09:13.500Z,95257.13
2022-09-03T10:11:44.543Z,95251.59
2022-09-03T10:14:23.026Z,95251.59
2022-09-03T10:16:58.449Z,95249.59
2022-09-03T10:19:43.775Z,95246.78
2022-09-03T10:22:17.154Z,95255.03
2022-09-03T10:25:02.572Z,95247.06
2022-09-03T10:27:29.223Z,95252.50
2022-09-03T10:29:58.727Z,95246.09
2022-09-03T10:32:25.215Z,95250.38
2022-09-03T10:35:09.431Z,95263.34
2022-09-03T10:37:47.477Z,95248.63
2022-09-03T10:40:32.037Z,95251.69
2022-09-03T10:43:16.824Z,95259.50
2022-09-03T10:45:58.733Z,95255.06
2022-09-03T10:48:49.725Z,95249.41
2022-09-03T10:51:34.580Z,95247.75
2022-09-03T10:54:21.798Z,95248.03
2022-09-03T10:57:14.362Z,95236.88
2022-09-03T10:59:56.765Z,95235.19
2022-09-03T11:02:55.329Z,95230.84
2022-09-03T11:05:32.933Z,95227.63
2022-09-03T11:08:11.898Z,95227.97
2022-09-03T11:10:45.969Z,95231.06
2022-09-03T11:13:24.811Z,95222.25
2022-09-03T11:15:55.782Z,95215.06
2022-09-03T11:18:29.229Z,95216.63
2022-09-03T11:21:00.372Z,95213.09
2022-09-03T11:23:29.772Z,95214.28
2022-09-03T11:26:01.542Z,95215.88
2022-09-03T11:28:46.880Z,95211.97
2022-09-03T11:31:22.518Z,95206.84
2022-09-03T11:34:14.001Z,95196.88
2022-09-03T11:36:49.753Z,95199.56
2022-09-03T11:39:31.712Z,95205.53
2022-09-03T11:42:03.883Z,95197.22
2022-09-03T11:44:51.060Z,95199.63
2022-09-03T11:47:24.368Z,95185.69
2022-09-03T11:49:53.549Z,95184.47
2022-09-03T11:52:31.367Z,95185.31
2022-09-03T11:54:58.230Z,95182.28
2022-09-03T11:57:30.414Z,95193.25
2022-09-03T12:00:14.714Z,95185.63
2022-09-03T12:02:47.684Z,95182.78
2022-09-03T12:05:21.980Z,95184.72
2022-09-03T12:08:12.679Z,95188.19
2022-09-03T12:11:05.908Z,95185.38
2022-09-03T12:13:47.987Z,95179.72
2022-09-03T12:16:40.184Z,95174.06
2022-09-03T12:19:22.219Z,95174.69
2022-09-03T12:21:49.624Z,95172.88
2022-09-03T12:24:16.822Z,95156.81
2022-09-03T12:26:43.937Z,95161.81
2022-09-03T12:29:23.801Z,95155.63
2022-09-03T12:31:54.735Z,95160.59
2022-09-03T12:34:21.313Z,95161.19
2022-09-03T12:36:50.859Z,95157.75
2022-09-03T12:39:17.576Z,95156.47
2022-09-03T12:41:56.390Z,95156.66
2022-09-03T12:44:32.546Z,95151.09
2022-09-03T12:49:53.243Z,95151.53
2022-09-03T12:52:28.297Z,95155.03
2022-09-03T12:55:03.242Z,95152.66
2022-09-03T12:57:35.602Z,95147.03
2022-09-03T13:00:08.266Z,95139.41
2022-09-03T13:02:46.313Z,95143.34
2022-09-03T13:05:18.782Z,95142.03
2022-09-03T13:07:53.210Z,95123.25
2022-09-03T13:10:36.339Z,95122.75
2022-09-03T13:13:17.737Z,95123.03
2022-09-03T13:16:15.847Z,95122.59
2022-09-03T13:19:14.754Z,95118.53
2022-09-03T13:22:09.415Z,95109.38
2022-09-03T13:24:54.785Z,95107.81
2022-09-03T13:27:42.009Z,95110.94
2022-09-03T13:30:23.106Z,95110.94
2022-09-03T13:33:20.464Z,95119.66
2022-09-03T13:35:53.306Z,95112.75
2022-09-03T13:38:24.064Z,95122.44
2022-09-03T13:41:01.125Z,95119.59
2022-09-03T13:44:02.767Z,95137.00
2022-09-03T13:46:38.951Z,95143.06
2022-09-03T13:49:18.028Z,95144.38
2022-09-03T13:51:54.484Z,95148.22
2022-09-03T13:54:47.563Z,95135.50
2022-09-03T13:57:35.567Z,95137.69
2022-09-03T14:00:04.276Z,95127.81
2022-09-03T14:02:55.772Z,95128.84
2022-09-03T14:05:57.610Z,95131.50
2022-09-03T14:08:42.373Z,95127.88
2022-09-03T14:11:42.825Z,95132.25
2022-09-03T14:14:37.472Z,95144.06
2022-09-03T14:17:15.097Z,95135.16
2022-09-03T14:19:56.173Z,95147.75
2022-09-03T14:22:45.874Z,95151.16
2022-09-03T14:25:17.171Z,95150.94
2022-09-03T14:27:44.061Z,95144.41
2022-09-03T14:30:16.831Z,95147.38
2022-09-03T14:32:55.668Z,95153.16
2022-09-03T14:35:33.094Z,95168.88
2022-09-03T14:38:09.619Z,95159.97
2022-09-03T14:40:43.752Z,95171.16
2022-09-03T14:43:31.975Z,95165.00
2022-09-03T14:46:17.071Z,95165.56
2022-09-03T14:49:08.583Z,95173.97
2022-09-03T14:51:54.067Z,95177.34
2022-09-03T14:54:58.356Z,95190.59
2022-09-03T14:57:36.836Z,95178.44
2022-09-03T15:00:12.134Z,95183.69
2022-09-03T15:03:04.917Z,95260.81
2022-09-03T15:06:04.473Z,95287.59
2022-09-03T15:08:48.255Z,95300.50
2022-09-03T15:11:33.200Z,95311.31
2022-09-03T15:14:15.646Z,95337.66
2022-09-03T15:17:17.407Z,95331.91
2022-09-03T15:20:21.223Z,95346.16
2022-09-03T15:23:11.378Z,95345.41
2022-09-03T15:25:55.899Z,95335.88
2022-09-03T15:28:25.308Z,95330.09
2022-09-03T15:30:58.972Z,95343.16
2022-09-03T15:33:39.487Z,95349.22
2022-09-03T15:36:44.143Z,95346.63
2022-09-03T15:39:18.345Z,95374.31
2022-09-03T15:41:52.669Z,95373.44
2022-09-03T15:44:20.058Z,95373.00
2022-09-03T15:47:14.127Z,95365.50
2022-09-03T15:49:53.063Z,95361.59
2022-09-03T15:52:28.547Z,95366.28
2022-09-03T15:55:12.877Z,95383.59
2022-09-03T15:57:54.752Z,95364.34
2022-09-03T16:00:22.512Z,95362.38
2022-09-03T16:03:09.342Z,95364.72
2022-09-03T16:05:57.963Z,95366.25
2022-09-03T16:08:52.495Z,95359.59
2022-09-03T16:11:39.141Z,95357.22
2022-09-03T16:14:31.494Z,95352.88
2022-09-03T16:17:26.202Z,95356.72
2022-09-03T16:20:19.400Z,95362.22
2022-09-03T16:22:58.136Z,95353.56
2022-09-03T16:25:31.591Z,95350.81
2022-09-03T16:28:11.471Z,95352.81
2022-09-03T16:30:40.967Z,95352.09
2022-09-03T16:34:04.831Z,95344.25
2022-09-03T16:37:05.820Z,95331.97
2022-09-03T16:39:35.369Z,95324.13
2022-09-03T16:42:07.473Z,95318.28
2022-09-03T16:44:51.182Z,95311.22
2022-09-03T16:47:41.477Z,95314.72
2022-09-03T16:50:38.955Z,95312.66
2022-09-03T16:53:16.355Z,95300.69
2022-09-03T16:55:51.831Z,95304.41
2022-09-03T16:58:34.480Z,95302.94
2022-09-03T17:01:39.059Z,95293.50
2022-09-03T17:04:31.682Z,95299.03
2022-09-03T17:07:28.703Z,95289.16
2022-09-03T17:10:21.153Z,95294.66
2022-09-03T17:13:15.335Z,95294.66
2022-09-03T17:15:55.048Z,95291.84
2022-09-03T17:18:33.622Z,95284.72
2022-09-03T17:21:22.929Z,95288.66
2022-09-03T17:24:04.451Z,95275.19
2022-09-03T17:27:04.316Z,95275.22
2022-09-03T17:30:05.229Z,95283.53
2022-09-03T17:32:57.196Z,95286.78
2022-09-03T17:35:37.784Z,95293.50
2022-09-03T17:38:32.294Z,95296.63
2022-09-03T17:41:15.845Z,95294.22
2022-09-03T17:44:10.366Z,95287.34
2022-09-03T17:47:19.305Z,95292.31
2022-09-03T17:49:50.572Z,95299.19
2022-09-03T17:52:32.289Z,95302.13
2022-09-03T17:55:35.070Z,95298.75
2022-09-03T17:58:29.397Z,95312.59
2022-09-03T18:01:14.712Z,95315.91
2022-09-03T18:03:49.868Z,95320.78
2022-09-03T18:06:27.948Z,95329.59
2022-09-03T18:09:06.473Z,95332.09
2022-09-03T18:11:49.692Z,95338.91
2022-09-03T18:14:39.504Z,95334.44
2022-09-03T18:17:17.356Z,95340.13
2022-09-03T18:19:55.549Z,95337.22
2022-09-03T18:22:25.507Z,95340.47
2022-09-03T18:24:58.499Z,95346.38
2022-09-03T18:27:40.791Z,95343.44
2022-09-03T18:30:10.190Z,95346.84
2022-09-03T18:32:36.860Z,95355.75
2022-09-03T18:35:03.634Z,95358.81
2022-09-03T18:37:30.227Z,95357.09
2022-09-03T18:39:56.813Z,95367.22
2022-09-03T18:42:31.378Z,95367.09
2022-09-03T18:45:23.328Z,95365.00
2022-09-03T18:48:05.956Z,95375.91
2022-09-03T18:50:49.144Z,95366.81
2022-09-03T18:53:46.365Z,95372.94
2022-09-03T18:56:13.011Z,95365.00
2022-09-03T18:59:01.036Z,95371.59
2022-09-03T19:01:45.890Z,95373.03
2022-09-03T19:04:29.630Z,95373.31
2022-09-03T19:07:02.243Z,95372.91
2022-09-03T19:09:40.997Z,95372.00
2022-09-03T19:12:22.395Z,95370.81
2022-09-03T19:15:14.992Z,95365.59
2022-09-03T19:18:00.056Z,95360.47
2022-09-03T19:20:31.463Z,95364.34
2022-09-03T19:22:58.082Z,95370.53
2022-09-03T19:25:27.417Z,95370.47
2022-09-03T19:28:21.903Z,95376.69
2022-09-03T19:30:54.491Z,95380.13
2022-09-03T19:33:26.686Z,95390.63
2022-09-03T19:36:15.117Z,95392.88
2022-09-03T19:38:50.271Z,95397.13
2022-09-03T19:41:55.214Z,95395.44
2022-09-03T19:45:00.602Z,95399.72
2022-09-03T19:47:55.203Z,95405.91
2022-09-03T19:50:31.018Z,95414.84
2022-09-03T19:53:03.610Z,95415.19
2022-09-03T19:55:35.515Z,95414.31
2022-09-03T19:58:02.131Z,95419.34
2022-09-03T20:00:33.063Z,95410.72
2022-09-03T20:03:01.592Z,95423.16
2022-09-03T20:05:28.175Z,95426.25
2022-09-03T20:07:56.442Z,95425.81
2022-09-03T20:10:24.940Z,95420.28
2022-09-03T20:13:19.202Z,95424.84
2022-09-03T20:16:17.170Z,95425.91
2022-09-03T20:18:59.854Z,95430.50
2022-09-03T20:21:38.571Z,95430.06
2022-09-03T20:24:10.829Z,95434.31
2022-09-03T20:27:00.430Z,95432.72
2022-09-03T20:29:45.393Z,95439.25
2022-09-03T20:32:36.531Z,95433.34
2022-09-03T20:35:54.312Z,95444.53
2022-09-03T20:38:59.682Z,95437.50
2022-09-03T20:41:49.506Z,95442.88
2022-09-03T20:44:49.243Z,95434.19
2022-09-03T20:47:30.721Z,95438.47
2022-09-03T20:50:18.916Z,95443.47
2022-09-03T20:53:03.951Z,95442.38
2022-09-03T20:55:42.584Z,95444.50
2022-09-03T20:58:26.779Z,95446.44
2022-09-03T21:01:06.990Z,95451.84
2022-09-03T21:03:48.957Z,95459.59
2022-09-03T21:06:18.363Z,95456.41
2022-09-03T21:09:15.210Z,95451.63
2022-09-03T21:11:47.734Z,95456.31
2022-09-03T21:14:41.251Z,95459.41
2022-09-03T21:17:21.238Z,95466.00
2022-09-03T21:19:54.256Z,95468.75
2022-09-03T21:22:48.170Z,95468.66
2022-09-03T21:25:30.027Z,95468.66
2022-09-03T21:28:08.438Z,95467.88
2022-09-03T21:30:39.192Z,95472.19
2022-09-03T21:33:12.927Z,95477.22
2022-09-03T21:35:53.588Z,95471.66
2022-09-03T21:38:28.147Z,95473.59
2022-09-03T21:41:02.750Z,95477.47
2022-09-03T21:43:44.153Z,95473.13
2022-09-03T21:46:19.075Z,95472.34
2022-09-03T21:48:57.745Z,95472.69
2022-09-03T21:51:33.371Z,95478.97
2022-09-03T21:54:02.930Z,95476.22
2022-09-03T21:56:44.595Z,95473.03
2022-09-03T22:00:01.477Z,95477.25
2022-09-03T22:02:30.260Z,95466.66
2022-09-03T22:04:57.463Z,95468.63
2022-09-03T22:07:42.994Z,95464.63
2022-09-03T22:10:22.572Z,95461.09
2022-09-03T22:13:17.053Z,95464.19
2022-09-03T22:15:47.020Z,95465.34
2022-09-03T22:18:21.579Z,95468.44
2022-09-03T22:20:48.289Z,95460.56
2022-09-03T22:23:21.702Z,95458.19
2022-09-03T22:25:58.997Z,95464.00
2022-09-03T22:29:04.153Z,95454.53
2022-09-03T22:32:07.920Z,95466.97
2022-09-03T22:34:43.872Z,95460.69
2022-09-03T22:37:38.426Z,95468.13
2022-09-03T22:40:28.665Z,95459.00
2022-09-03T22:43:32.874Z,95473.03
2022-09-03T22:46:02.207Z,95472.25
2022-09-03T22:49:05.865Z,95469.06
2022-09-03T22:52:03.171Z,95462.00
2022-09-03T22:54:57.939Z,95467.03
2022-09-03T22:57:28.315Z,95472.50
2022-09-03T23:00:02.440Z,95469.28
2022-09-03T23:02:31.511Z,95468.50
2022-09-03T23:05:09.528Z,95468.06
2022-09-03T23:07:43.005Z,95468.84
2022-09-03T23:10:14.755Z,95475.78
2022-09-03T23:13:09.502Z,95471.47
2022-09-03T23:15:39.516Z,95463.63
2022-09-03T23:18:21.059Z,95464.75
2022-09-03T23:21:00.736Z,95472.53
2022-09-03T23:23:34.877Z,95471.72
2022-09-03T23:26:14.015Z,95474.00
2022-09-03T23:28:46.201Z,95468.88
2022-09-03T23:31:20.780Z,95473.91
2022-09-03T23:33:47.987Z,95475.84
2022-09-03T23:36:53.103Z,95474.59
2022-09-03T23:39:31.778Z,95480.75
2022-09-03T23:42:10.172Z,95469.81
2022-09-03T23:45:08.558Z,95469.34
2022-09-03T23:48:26.575Z,95472.44
2022-09-03T23:51:13.978Z,95478.25
2022-09-03T23:53:46.281Z,95468.44
2022-09-03T23:56:54.163Z,95475.84
2022-09-03T23:59:37.823Z,95475.41
